createdAt,value
2023-05-13T00:00:36.053Z,22.67
2023-05-13T00:01:36.195Z,22.65
2023-05-13T00:02:36.392Z,22.64
2023-05-13T00:03:36.373Z,22.62
2023-05-13T00:04:36.389Z,22.64
2023-05-13T00:05:36.464Z,22.64
2023-05-13T00:06:36.657Z,22.64
2023-05-13T00:07:36.651Z,22.65
2023-05-13T00:08:36.716Z,22.65
2023-05-13T00:09:36.801Z,22.66
2023-05-13T00:10:36.880Z,22.65
2023-05-13T00:11:37.010Z,22.64
2023-05-13T00:12:37.055Z,22.66
2023-05-13T00:13:37.134Z,22.65
2023-05-13T00:14:37.231Z,22.63
2023-05-13T00:15:37.282Z,22.63
2023-05-13T00:16:37.508Z,22.65
2023-05-13T00:17:37.474Z,22.64
2023-05-13T00:18:37.563Z,22.65
2023-05-13T00:19:37.606Z,22.63
2023-05-13T00:20:37.710Z,22.64
2023-05-13T00:21:37.748Z,22.64
2023-05-13T00:22:37.851Z,22.63
2023-05-13T00:23:37.932Z,22.62
2023-05-13T00:24:38.000Z,22.62
2023-05-13T00:25:38.078Z,22.61
2023-05-13T00:26:38.172Z,22.62
2023-05-13T00:27:38.258Z,22.62
2023-05-13T00:28:38.370Z,22.61
2023-05-13T00:29:38.418Z,22.61
2023-05-13T00:30:38.481Z,22.61
2023-05-13T00:31:38.648Z,22.61
2023-05-13T00:32:38.710Z,22.60
2023-05-13T00:33:38.734Z,22.61
2023-05-13T00:34:38.819Z,22.60
2023-05-13T00:35:38.906Z,22.59
2023-05-13T00:36:38.987Z,22.60
2023-05-13T00:37:39.061Z,22.59
2023-05-13T00:38:39.172Z,22.61
2023-05-13T00:39:39.211Z,22.61
2023-05-13T00:40:39.317Z,22.60
2023-05-13T00:41:39.394Z,22.60
2023-05-13T00:42:39.471Z,22.61
2023-05-13T00:43:39.535Z,22.61
2023-05-13T00:44:39.659Z,22.61
2023-05-13T00:45:39.711Z,22.61
2023-05-13T00:46:39.778Z,22.60
2023-05-13T00:47:39.898Z,22.61
2023-05-13T00:48:39.943Z,22.59
2023-05-13T00:49:40.054Z,22.60
2023-05-13T00:50:40.120Z,22.59
2023-05-13T00:51:40.202Z,22.57
2023-05-13T00:52:40.300Z,22.58
2023-05-13T00:53:40.366Z,22.58
2023-05-13T00:54:40.446Z,22.59
2023-05-13T00:55:40.536Z,22.58
2023-05-13T00:56:40.624Z,22.58
2023-05-13T00:57:40.704Z,22.59
2023-05-13T00:58:40.786Z,22.59
2023-05-13T00:59:40.902Z,22.58
2023-05-13T01:00:40.953Z,22.59
2023-05-13T01:01:41.117Z,22.58
2023-05-13T01:02:41.178Z,22.58
2023-05-13T01:03:41.292Z,22.56
2023-05-13T01:04:41.291Z,22.57
2023-05-13T01:05:41.360Z,22.56
2023-05-13T01:06:41.442Z,22.57
2023-05-13T01:07:41.513Z,22.57
2023-05-13T01:08:41.575Z,22.58
2023-05-13T01:09:41.688Z,22.58
2023-05-13T01:10:41.739Z,22.56
2023-05-13T01:11:41.810Z,22.56
2023-05-13T01:12:41.900Z,22.57
2023-05-13T01:13:41.976Z,22.57
2023-05-13T01:14:42.055Z,22.56
2023-05-13T01:15:42.130Z,22.54
2023-05-13T01:16:42.275Z,22.55
2023-05-13T01:17:42.313Z,22.55
2023-05-13T01:18:42.469Z,22.53
2023-05-13T01:19:42.580Z,22.55
2023-05-13T01:20:42.575Z,22.54
2023-05-13T01:21:42.656Z,22.55
2023-05-13T01:22:42.723Z,22.54
2023-05-13T01:23:42.774Z,22.55
2023-05-13T01:24:42.976Z,22.52
2023-05-13T01:25:42.962Z,22.54
2023-05-13T01:26:43.024Z,22.52
2023-05-13T01:27:43.100Z,22.51
2023-05-13T01:28:43.173Z,22.52
2023-05-13T01:29:43.211Z,22.52
2023-05-13T01:30:43.282Z,22.52
2023-05-13T01:31:43.451Z,22.52
2023-05-13T01:32:43.441Z,22.52
2023-05-13T01:33:43.485Z,22.54
2023-05-13T01:34:43.585Z,22.54
2023-05-13T01:35:43.631Z,22.55
2023-05-13T01:36:43.728Z,22.55
2023-05-13T01:37:43.792Z,22.54
2023-05-13T01:38:43.860Z,22.53
2023-05-13T01:39:43.952Z,22.54
2023-05-13T01:40:44.005Z,22.54
2023-05-13T01:41:44.080Z,22.53
2023-05-13T01:42:44.183Z,22.54
2023-05-13T01:43:44.263Z,22.53
2023-05-13T01:44:44.324Z,22.53
2023-05-13T01:45:44.407Z,22.52
2023-05-13T01:46:44.587Z,22.50
2023-05-13T01:47:44.590Z,22.51
2023-05-13T01:48:44.665Z,22.52
2023-05-13T01:49:44.715Z,22.53
2023-05-13T01:50:44.808Z,22.52
2023-05-13T01:51:44.885Z,22.53
2023-05-13T01:52:44.980Z,22.52
2023-05-13T01:53:45.084Z,22.52
2023-05-13T01:54:45.140Z,22.53
2023-05-13T01:55:45.226Z,22.51
2023-05-13T01:56:45.299Z,22.52
2023-05-13T01:57:45.398Z,22.52
2023-05-13T01:58:45.466Z,22.51
2023-05-13T01:59:45.539Z,22.51
2023-05-13T02:00:45.619Z,22.52
2023-05-13T02:01:45.788Z,22.53
2023-05-13T02:02:45.907Z,22.50
2023-05-13T02:03:45.899Z,22.51
2023-05-13T02:04:46.005Z,22.51
2023-05-13T02:05:46.057Z,22.53
2023-05-13T02:06:46.227Z,22.51
2023-05-13T02:07:46.618Z,22.50
2023-05-13T02:08:46.320Z,22.52
2023-05-13T02:09:46.408Z,22.53
2023-05-13T02:10:46.549Z,22.51
2023-05-13T02:11:46.668Z,22.51
2023-05-13T02:12:46.690Z,22.52
2023-05-13T02:13:46.710Z,22.50
2023-05-13T02:14:46.786Z,22.52
2023-05-13T02:15:46.864Z,22.49
2023-05-13T02:16:47.007Z,22.51
2023-05-13T02:17:47.090Z,22.51
2023-05-13T02:18:47.164Z,22.51
2023-05-13T02:19:47.204Z,22.51
2023-05-13T02:20:47.285Z,22.51
2023-05-13T02:21:47.362Z,22.52
2023-05-13T02:22:47.453Z,22.50
2023-05-13T02:23:47.558Z,22.51
2023-05-13T02:24:47.632Z,22.49
2023-05-13T02:25:47.726Z,22.49
2023-05-13T02:26:47.804Z,22.47
2023-05-13T02:27:47.908Z,22.47
2023-05-13T02:28:47.992Z,22.49
2023-05-13T02:29:48.053Z,22.48
2023-05-13T02:30:48.136Z,22.48
2023-05-13T02:31:48.262Z,22.49
2023-05-13T02:32:48.325Z,22.49
2023-05-13T02:33:48.357Z,22.49
2023-05-13T02:34:48.422Z,22.48
2023-05-13T02:35:48.531Z,22.50
2023-05-13T02:36:48.619Z,22.47
2023-05-13T02:37:48.690Z,22.48
2023-05-13T02:38:48.769Z,22.49
2023-05-13T02:39:48.720Z,22.49
2023-05-13T02:40:48.725Z,22.48
2023-05-13T02:41:48.736Z,22.48
2023-05-13T02:42:48.732Z,22.48
2023-05-13T02:43:48.723Z,22.47
2023-05-13T02:44:48.792Z,22.46
2023-05-13T02:45:48.845Z,22.46
2023-05-13T02:46:48.820Z,22.46
2023-05-13T02:47:48.968Z,22.46
2023-05-13T02:48:49.003Z,22.46
2023-05-13T02:49:49.072Z,22.47
2023-05-13T02:50:49.162Z,22.47
2023-05-13T02:51:49.244Z,22.45
2023-05-13T02:52:49.340Z,22.46
2023-05-13T02:53:49.417Z,22.45
2023-05-13T02:54:49.526Z,22.44
2023-05-13T02:55:49.593Z,22.46
2023-05-13T02:56:49.689Z,22.45
2023-05-13T02:57:49.824Z,22.44
2023-05-13T02:58:49.861Z,22.44
2023-05-13T02:59:49.946Z,22.44
2023-05-13T03:00:50.034Z,22.44
2023-05-13T03:01:50.257Z,22.43
2023-05-13T03:02:50.273Z,22.44
2023-05-13T03:03:50.340Z,22.46
2023-05-13T03:04:50.424Z,22.44
2023-05-13T03:05:50.497Z,22.44
2023-05-13T03:06:50.559Z,22.43
2023-05-13T03:07:50.630Z,22.43
2023-05-13T03:08:50.706Z,22.42
2023-05-13T03:09:50.796Z,22.42
2023-05-13T03:10:50.866Z,22.43
2023-05-13T03:11:50.906Z,22.43
2023-05-13T03:12:50.947Z,22.44
2023-05-13T03:13:50.990Z,22.42
2023-05-13T03:14:50.988Z,22.42
2023-05-13T03:15:51.069Z,22.42
2023-05-13T03:16:51.083Z,22.42
2023-05-13T03:17:51.204Z,22.40
2023-05-13T03:18:51.253Z,22.40
2023-05-13T03:19:51.297Z,22.42
2023-05-13T03:20:51.305Z,22.40
2023-05-13T03:21:51.366Z,22.39
2023-05-13T03:22:51.407Z,22.39
2023-05-13T03:23:51.468Z,22.40
2023-05-13T03:24:51.475Z,22.39
2023-05-13T03:25:51.511Z,22.40
2023-05-13T03:26:51.560Z,22.40
2023-05-13T03:27:51.584Z,22.38
2023-05-13T03:28:51.625Z,22.39
2023-05-13T03:29:51.654Z,22.38
2023-05-13T03:30:51.753Z,22.36
2023-05-13T03:31:51.901Z,22.38
2023-05-13T03:32:51.843Z,22.35
2023-05-13T03:33:51.869Z,22.35
2023-05-13T03:34:51.965Z,22.36
2023-05-13T03:35:52.037Z,22.38
2023-05-13T03:36:52.079Z,22.37
2023-05-13T03:37:52.115Z,22.37
2023-05-13T03:38:52.179Z,22.37
2023-05-13T03:39:52.212Z,22.37
2023-05-13T03:40:52.297Z,22.40
2023-05-13T03:41:52.326Z,22.41
2023-05-13T03:42:52.397Z,22.38
2023-05-13T03:43:52.495Z,22.36
2023-05-13T03:44:52.663Z,22.37
2023-05-13T03:45:52.676Z,22.37
2023-05-13T03:46:52.765Z,22.37
2023-05-13T03:47:52.867Z,22.35
2023-05-13T03:48:52.836Z,22.35
2023-05-13T03:49:53.004Z,22.36
2023-05-13T03:50:53.135Z,22.36
2023-05-13T03:51:53.057Z,22.38
2023-05-13T03:52:53.094Z,22.37
2023-05-13T03:53:53.221Z,22.39
2023-05-13T03:54:53.214Z,22.37
2023-05-13T03:55:53.302Z,22.36
2023-05-13T03:56:53.368Z,22.36
2023-05-13T03:57:53.334Z,22.38
2023-05-13T03:58:53.393Z,22.36
2023-05-13T03:59:53.459Z,22.36
2023-05-13T04:00:53.520Z,22.36
2023-05-13T04:01:53.624Z,22.36
2023-05-13T04:02:53.643Z,22.36
2023-05-13T04:03:53.630Z,22.35
2023-05-13T04:04:53.658Z,22.36
2023-05-13T04:05:53.715Z,22.36
2023-05-13T04:06:53.763Z,22.37
2023-05-13T04:07:53.842Z,22.36
2023-05-13T04:08:53.913Z,22.37
2023-05-13T04:09:53.961Z,22.36
2023-05-13T04:10:54.023Z,22.36
2023-05-13T04:11:54.090Z,22.37
2023-05-13T04:12:54.164Z,22.36
2023-05-13T04:13:54.190Z,22.35
2023-05-13T04:14:54.256Z,22.35
2023-05-13T04:15:54.315Z,22.34
2023-05-13T04:16:54.407Z,22.34
2023-05-13T04:17:54.436Z,22.34
2023-05-13T04:18:54.507Z,22.36
2023-05-13T04:19:54.570Z,22.36
2023-05-13T04:20:54.578Z,22.36
2023-05-13T04:21:54.647Z,22.35
2023-05-13T04:22:54.680Z,22.36
2023-05-13T04:23:54.731Z,22.36
2023-05-13T04:24:54.773Z,22.35
2023-05-13T04:25:54.790Z,22.33
2023-05-13T04:26:54.840Z,22.34
2023-05-13T04:27:54.880Z,22.34
2023-05-13T04:28:54.965Z,22.34
2023-05-13T04:29:54.990Z,22.35
2023-05-13T04:30:55.035Z,22.34
2023-05-13T04:31:55.118Z,22.34
2023-05-13T04:32:55.126Z,22.34
2023-05-13T04:33:55.190Z,22.33
2023-05-13T04:34:55.226Z,22.33
2023-05-13T04:35:55.211Z,22.32
2023-05-13T04:36:55.248Z,22.34
2023-05-13T04:37:55.293Z,22.34
2023-05-13T04:38:55.335Z,22.33
2023-05-13T04:39:55.359Z,22.32
2023-05-13T04:40:55.430Z,22.35
2023-05-13T04:41:55.461Z,22.34
2023-05-13T04:42:55.519Z,22.35
2023-05-13T04:43:55.555Z,22.34
2023-05-13T04:44:55.623Z,22.36
2023-05-13T04:45:55.681Z,22.33
2023-05-13T04:46:55.756Z,22.34
2023-05-13T04:47:58.361Z,22.34
2023-05-13T04:48:55.810Z,22.34
2023-05-13T04:49:55.827Z,22.34
2023-05-13T04:50:55.840Z,22.34
2023-05-13T04:51:55.890Z,22.33
2023-05-13T04:52:55.876Z,22.32
2023-05-13T04:53:55.905Z,22.33
2023-05-13T04:54:55.922Z,22.33
2023-05-13T04:55:55.932Z,22.34
2023-05-13T04:56:55.945Z,22.34
2023-05-13T04:57:55.951Z,22.35
2023-05-13T04:58:55.966Z,22.34
2023-05-13T04:59:55.985Z,22.34
2023-05-13T05:00:55.990Z,22.34
2023-05-13T05:01:56.098Z,22.35
2023-05-13T05:02:56.068Z,22.36
2023-05-13T05:03:56.119Z,22.36
2023-05-13T05:04:56.061Z,22.35
2023-05-13T05:05:56.078Z,22.34
2023-05-13T05:06:56.108Z,22.35
2023-05-13T05:07:56.119Z,22.35
2023-05-13T05:08:56.137Z,22.34
2023-05-13T05:09:56.137Z,22.34
2023-05-13T05:10:56.162Z,22.35
2023-05-13T05:11:56.185Z,22.32
2023-05-13T05:12:56.210Z,22.33
2023-05-13T05:13:56.218Z,22.33
2023-05-13T05:14:56.300Z,22.33
2023-05-13T05:15:56.257Z,22.31
2023-05-13T05:16:56.288Z,22.33
2023-05-13T05:17:56.508Z,22.31
2023-05-13T05:18:56.479Z,22.31
2023-05-13T05:19:56.516Z,22.30
2023-05-13T05:20:56.361Z,22.31
2023-05-13T05:21:56.429Z,22.32
2023-05-13T05:22:56.494Z,22.34
2023-05-13T05:23:56.557Z,22.35
2023-05-13T05:24:56.434Z,22.34
2023-05-13T05:26:04.520Z,22.35
2023-05-13T05:26:57.474Z,22.36
2023-05-13T05:27:56.487Z,22.36
2023-05-13T05:28:56.516Z,22.35
2023-05-13T05:29:56.528Z,22.35
2023-05-13T05:30:56.545Z,22.36
2023-05-13T05:31:56.577Z,22.36
2023-05-13T05:32:56.713Z,22.38
2023-05-13T05:33:56.699Z,22.38
2023-05-13T05:34:56.695Z,22.36
2023-05-13T05:35:56.803Z,22.35
2023-05-13T05:36:56.777Z,22.37
2023-05-13T05:37:56.682Z,22.39
2023-05-13T05:38:56.743Z,22.37
2023-05-13T05:39:56.729Z,22.38
2023-05-13T05:40:56.736Z,22.38
2023-05-13T05:41:56.797Z,22.39
2023-05-13T05:42:56.843Z,22.39
2023-05-13T05:43:56.914Z,22.38
2023-05-13T05:44:56.985Z,22.39
2023-05-13T05:45:57.061Z,22.38
2023-05-13T05:46:57.052Z,22.37
2023-05-13T05:47:57.191Z,22.38
2023-05-13T05:48:57.158Z,22.38
2023-05-13T05:49:57.232Z,22.38
2023-05-13T05:50:57.270Z,22.38
2023-05-13T05:51:57.297Z,22.39
2023-05-13T05:52:57.340Z,22.38
2023-05-13T05:53:57.407Z,22.38
2023-05-13T05:54:57.435Z,22.38
2023-05-13T05:55:57.477Z,22.39
2023-05-13T05:56:57.508Z,22.39
2023-05-13T05:57:57.589Z,22.38
2023-05-13T05:58:57.654Z,22.37
2023-05-13T05:59:57.688Z,22.38
2023-05-13T06:00:57.726Z,22.39
2023-05-13T06:01:57.829Z,22.38
2023-05-13T06:02:57.913Z,22.40
2023-05-13T06:03:58.003Z,22.40
2023-05-13T06:04:57.898Z,22.40
2023-05-13T06:05:57.982Z,22.41
2023-05-13T06:06:58.017Z,22.41
2023-05-13T06:07:58.007Z,22.42
2023-05-13T06:08:58.084Z,22.41
2023-05-13T06:09:58.077Z,22.43
2023-05-13T06:10:58.108Z,22.43
2023-05-13T06:11:58.151Z,22.42
2023-05-13T06:12:58.194Z,22.44
2023-05-13T06:13:58.256Z,22.43
2023-05-13T06:14:58.327Z,22.44
2023-05-13T06:15:58.454Z,22.44
2023-05-13T06:16:58.530Z,22.45
2023-05-13T06:17:58.697Z,22.46
2023-05-13T06:18:58.784Z,22.47
2023-05-13T06:19:58.824Z,22.47
2023-05-13T06:20:58.920Z,22.48
2023-05-13T06:21:59.022Z,22.49
2023-05-13T06:22:59.130Z,22.48
2023-05-13T06:23:59.206Z,22.48
2023-05-13T06:24:59.298Z,22.50
2023-05-13T06:25:59.411Z,22.51
2023-05-13T06:26:59.505Z,22.50
2023-05-13T06:28:01.516Z,22.50
2023-05-13T06:28:59.644Z,22.51
2023-05-13T06:29:59.649Z,22.51
2023-05-13T06:30:59.683Z,22.50
2023-05-13T06:31:59.720Z,22.51
2023-05-13T06:33:02.095Z,22.53
2023-05-13T06:33:59.795Z,22.53
2023-05-13T06:34:59.828Z,22.51
2023-05-13T06:35:59.857Z,22.52
2023-05-13T06:36:59.867Z,22.51
2023-05-13T06:37:59.900Z,22.52
2023-05-13T06:38:59.933Z,22.54
2023-05-13T06:39:59.974Z,22.53
2023-05-13T06:40:59.992Z,22.55
2023-05-13T06:42:00.033Z,22.53
2023-05-13T06:43:00.063Z,22.53
2023-05-13T06:44:00.098Z,22.55
2023-05-13T06:45:00.136Z,22.55
2023-05-13T06:46:00.159Z,22.54
2023-05-13T06:47:00.203Z,22.54
2023-05-13T06:48:00.280Z,22.57
2023-05-13T06:49:00.207Z,22.58
2023-05-13T06:50:00.246Z,22.57
2023-05-13T06:51:00.259Z,22.58
2023-05-13T06:52:00.281Z,22.59
2023-05-13T06:53:00.314Z,22.61
2023-05-13T06:54:00.337Z,22.60
2023-05-13T06:55:00.353Z,22.63
2023-05-13T06:56:00.391Z,22.64
2023-05-13T06:57:00.413Z,22.65
2023-05-13T06:58:00.430Z,22.65
2023-05-13T06:59:00.464Z,22.65
2023-05-13T07:00:00.480Z,22.66
2023-05-13T07:01:00.614Z,22.66
2023-05-13T07:02:00.541Z,22.67
2023-05-13T07:03:00.616Z,22.67
2023-05-13T07:04:00.689Z,22.68
2023-05-13T07:05:00.607Z,22.68
2023-05-13T07:06:00.643Z,22.67
2023-05-13T07:07:00.665Z,22.67
2023-05-13T07:08:00.693Z,22.69
2023-05-13T07:09:00.732Z,22.69
2023-05-13T07:10:00.772Z,22.68
2023-05-13T07:11:00.780Z,22.69
2023-05-13T07:12:00.805Z,22.70
2023-05-13T07:13:00.839Z,22.71
2023-05-13T07:14:00.852Z,22.72
2023-05-13T07:15:00.933Z,22.71
2023-05-13T07:16:01.014Z,22.71
2023-05-13T07:17:01.142Z,22.71
2023-05-13T07:18:01.198Z,22.72
2023-05-13T07:19:01.309Z,22.70
2023-05-13T07:20:01.349Z,22.71
2023-05-13T07:21:01.430Z,22.71
2023-05-13T07:22:01.478Z,22.70
2023-05-13T07:23:01.547Z,22.72
2023-05-13T07:24:01.631Z,22.74
2023-05-13T07:25:01.708Z,22.74
2023-05-13T07:26:01.767Z,22.74
2023-05-13T07:27:01.835Z,22.74
2023-05-13T07:28:01.933Z,22.75
2023-05-13T07:29:01.985Z,22.76
2023-05-13T07:30:02.051Z,22.76
2023-05-13T07:31:02.180Z,22.77
2023-05-13T07:32:02.200Z,22.77
2023-05-13T07:33:02.365Z,22.77
2023-05-13T07:34:02.358Z,22.79
2023-05-13T07:35:02.403Z,22.78
2023-05-13T07:36:02.484Z,22.79
2023-05-13T07:37:02.590Z,22.78
2023-05-13T07:38:02.627Z,22.79
2023-05-13T07:39:02.730Z,22.79
2023-05-13T07:40:02.848Z,22.81
2023-05-13T07:41:02.850Z,22.82
2023-05-13T07:42:02.913Z,22.82
2023-05-13T07:43:03.007Z,22.83
2023-05-13T07:44:03.113Z,22.84
2023-05-13T07:45:03.176Z,22.83
2023-05-13T07:46:03.196Z,22.84
2023-05-13T07:47:03.327Z,22.84
2023-05-13T07:48:03.382Z,22.85
2023-05-13T07:49:03.407Z,22.85
2023-05-13T07:50:03.481Z,22.86
2023-05-13T07:51:03.536Z,22.86
2023-05-13T07:52:03.608Z,22.86
2023-05-13T07:53:03.678Z,22.87
2023-05-13T07:54:03.761Z,22.87
2023-05-13T07:55:03.798Z,22.89
2023-05-13T07:56:03.874Z,22.87
2023-05-13T07:57:03.929Z,22.87
2023-05-13T07:58:04.021Z,22.88
2023-05-13T07:59:04.111Z,22.88
2023-05-13T08:00:04.146Z,22.90
2023-05-13T08:01:04.207Z,22.90
2023-05-13T08:02:04.277Z,22.89
2023-05-13T08:03:04.507Z,22.90
2023-05-13T08:04:04.527Z,22.91
2023-05-13T08:05:04.637Z,22.91
2023-05-13T08:06:04.545Z,22.92
2023-05-13T08:07:04.616Z,22.92
2023-05-13T08:08:04.686Z,22.90
2023-05-13T08:09:04.739Z,22.91
2023-05-13T08:10:04.825Z,22.92
2023-05-13T08:11:04.874Z,22.92
2023-05-13T08:12:04.967Z,22.93
2023-05-13T08:13:05.006Z,22.92
2023-05-13T08:14:05.080Z,22.92
2023-05-13T08:15:05.156Z,22.92
2023-05-13T08:16:05.241Z,22.92
2023-05-13T08:17:05.263Z,22.94
2023-05-13T08:18:05.366Z,22.95
2023-05-13T08:19:05.478Z,22.95
2023-05-13T08:20:05.465Z,22.96
2023-05-13T08:21:05.554Z,22.96
2023-05-13T08:22:05.594Z,22.96
2023-05-13T08:23:05.664Z,22.96
2023-05-13T08:24:05.716Z,22.96
2023-05-13T08:25:05.781Z,22.98
2023-05-13T08:26:05.858Z,22.99
2023-05-13T08:27:05.903Z,22.99
2023-05-13T08:28:05.995Z,22.98
2023-05-13T08:29:06.028Z,22.99
2023-05-13T08:30:06.092Z,22.99
2023-05-13T08:31:06.162Z,22.99
2023-05-13T08:32:06.228Z,23.01
2023-05-13T08:33:06.305Z,23.03
2023-05-13T08:34:06.321Z,23.04
2023-05-13T08:35:06.384Z,23.05
2023-05-13T08:36:06.506Z,23.08
2023-05-13T08:37:06.543Z,23.09
2023-05-13T08:38:06.558Z,23.09
2023-05-13T08:39:06.620Z,23.09
2023-05-13T08:40:06.657Z,23.08
2023-05-13T08:41:06.860Z,23.09
2023-05-13T08:42:06.856Z,23.10
2023-05-13T08:43:06.832Z,23.11
2023-05-13T08:44:06.867Z,23.11
2023-05-13T08:45:06.911Z,23.13
2023-05-13T08:46:07.004Z,23.15
2023-05-13T08:47:07.008Z,23.14
2023-05-13T08:48:07.116Z,23.14
2023-05-13T08:49:07.110Z,23.14
2023-05-13T08:50:07.151Z,23.13
2023-05-13T08:51:07.213Z,23.14
2023-05-13T08:52:07.265Z,23.14
2023-05-13T08:53:07.298Z,23.17
2023-05-13T08:54:07.361Z,23.19
2023-05-13T08:55:07.400Z,23.20
2023-05-13T08:56:07.435Z,23.23
2023-05-13T08:57:07.472Z,23.24
2023-05-13T08:58:07.555Z,23.24
2023-05-13T08:59:07.568Z,23.25
2023-05-13T09:00:07.628Z,23.25
2023-05-13T09:01:07.684Z,23.26
2023-05-13T09:02:07.679Z,23.25
2023-05-13T09:03:07.738Z,23.25
2023-05-13T09:04:07.758Z,23.26
2023-05-13T09:05:07.891Z,23.27
2023-05-13T09:06:07.832Z,23.29
2023-05-13T09:07:07.868Z,23.29
2023-05-13T09:08:07.888Z,23.30
2023-05-13T09:09:07.952Z,23.30
2023-05-13T09:10:07.989Z,23.30
2023-05-13T09:11:07.998Z,23.30
2023-05-13T09:12:08.044Z,23.31
2023-05-13T09:13:08.077Z,23.30
2023-05-13T09:14:08.110Z,23.28
2023-05-13T09:15:08.148Z,23.28
2023-05-13T09:16:08.255Z,23.29
2023-05-13T09:17:08.238Z,23.28
2023-05-13T09:18:08.395Z,23.30
2023-05-13T09:19:08.370Z,23.30
2023-05-13T09:20:08.316Z,23.31
2023-05-13T09:21:08.335Z,23.32
2023-05-13T09:22:08.385Z,23.34
2023-05-13T09:23:08.400Z,23.35
2023-05-13T09:24:09.506Z,23.36
2023-05-13T09:25:08.659Z,23.36
2023-05-13T09:26:08.691Z,23.36
2023-05-13T09:27:08.701Z,23.38
2023-05-13T09:28:08.749Z,23.40
2023-05-13T09:29:08.687Z,23.39
2023-05-13T09:30:08.701Z,23.37
2023-05-13T09:31:08.730Z,23.39
2023-05-13T09:32:08.683Z,23.40
2023-05-13T09:33:08.779Z,23.39
2023-05-13T09:34:08.693Z,23.40
2023-05-13T09:35:08.713Z,23.42
2023-05-13T09:36:08.711Z,23.43
2023-05-13T09:37:08.725Z,23.43
2023-05-13T09:38:08.719Z,23.44
2023-05-13T09:39:08.715Z,23.44
2023-05-13T09:40:08.726Z,23.45
2023-05-13T09:41:08.711Z,23.46
2023-05-13T09:42:08.719Z,23.47
2023-05-13T09:43:08.730Z,23.48
2023-05-13T09:44:08.728Z,23.49
2023-05-13T09:45:08.736Z,23.50
2023-05-13T09:46:08.738Z,23.52
2023-05-13T09:47:08.852Z,23.51
2023-05-13T09:48:08.780Z,23.53
2023-05-13T09:49:08.740Z,23.52
2023-05-13T09:50:08.756Z,23.54
2023-05-13T09:51:11.316Z,23.55
2023-05-13T09:53:27.681Z,23.55
2023-05-13T09:54:27.644Z,23.55
2023-05-13T09:55:27.638Z,23.56
2023-05-13T09:56:27.647Z,23.55
2023-05-13T09:57:27.676Z,23.57
2023-05-13T09:58:27.711Z,23.59
2023-05-13T09:59:27.740Z,23.60
2023-05-13T10:00:32.611Z,23.61
2023-05-13T10:01:28.769Z,23.59
2023-05-13T10:02:27.769Z,23.60
2023-05-13T10:03:27.764Z,23.61
2023-05-13T10:04:27.928Z,23.62
2023-05-13T10:05:27.764Z,23.60
2023-05-13T10:06:27.778Z,23.61
2023-05-13T10:07:27.787Z,23.61
2023-05-13T10:08:27.801Z,23.61
2023-05-13T10:09:27.810Z,23.60
2023-05-13T10:10:27.846Z,23.61
2023-05-13T10:11:27.845Z,23.62
2023-05-13T10:12:27.845Z,23.62
2023-05-13T10:13:27.880Z,23.63
2023-05-13T10:14:27.886Z,23.65
2023-05-13T10:15:27.891Z,23.64
2023-05-13T10:16:27.930Z,23.63
2023-05-13T10:17:27.936Z,23.63
2023-05-13T10:18:27.951Z,23.63
2023-05-13T10:19:27.932Z,23.63
2023-05-13T10:20:27.928Z,23.63
2023-05-13T10:21:27.958Z,23.63
2023-05-13T10:22:27.947Z,23.65
2023-05-13T10:23:27.973Z,23.64
2023-05-13T10:24:27.969Z,23.65
2023-05-13T10:25:27.996Z,23.64
2023-05-13T10:26:28.013Z,23.65
2023-05-13T10:27:28.009Z,23.65
2023-05-13T10:28:28.008Z,23.65
2023-05-13T10:29:28.013Z,23.64
2023-05-13T10:30:28.013Z,23.65
2023-05-13T10:31:28.015Z,23.66
2023-05-13T10:32:28.036Z,23.67
2023-05-13T10:33:28.030Z,23.67
2023-05-13T10:34:28.028Z,23.68
2023-05-13T10:35:28.058Z,23.67
2023-05-13T10:36:28.064Z,23.68
2023-05-13T10:37:28.052Z,23.71
2023-05-13T10:38:28.090Z,23.71
2023-05-13T10:39:28.091Z,23.71
2023-05-13T10:40:28.089Z,23.70
2023-05-13T10:41:28.090Z,23.69
2023-05-13T10:42:28.100Z,23.70
2023-05-13T10:43:28.115Z,23.71
2023-05-13T10:44:28.101Z,23.73
2023-05-13T10:45:28.135Z,23.74
2023-05-13T10:46:28.158Z,23.74
2023-05-13T10:47:28.295Z,23.75
2023-05-13T10:48:28.161Z,23.75
2023-05-13T10:49:28.136Z,23.77
2023-05-13T10:50:28.152Z,23.78
2023-05-13T10:51:28.151Z,23.76
2023-05-13T10:52:28.158Z,23.76
2023-05-13T10:53:28.171Z,23.77
2023-05-13T10:54:28.176Z,23.78
2023-05-13T10:55:28.197Z,23.78
2023-05-13T10:56:28.210Z,23.77
2023-05-13T10:57:28.215Z,23.78
2023-05-13T10:58:28.235Z,23.77
2023-05-13T10:59:28.219Z,23.78
2023-05-13T11:00:28.224Z,23.77
2023-05-13T11:01:28.306Z,23.77
2023-05-13T11:02:28.284Z,23.75
2023-05-13T11:03:29.308Z,23.76
2023-05-13T11:04:28.275Z,23.76
2023-05-13T11:05:28.257Z,23.75
2023-05-13T11:06:28.261Z,23.76
2023-05-13T11:07:28.283Z,23.75
2023-05-13T11:08:28.273Z,23.74
2023-05-13T11:09:28.266Z,23.76
2023-05-13T11:10:28.276Z,23.76
2023-05-13T11:11:28.283Z,23.77
2023-05-13T11:12:28.280Z,23.78
2023-05-13T11:13:28.377Z,23.79
2023-05-13T11:14:28.309Z,23.80
2023-05-13T11:15:28.319Z,23.81
2023-05-13T11:16:28.377Z,23.82
2023-05-13T11:17:28.370Z,23.81
2023-05-13T11:18:28.382Z,23.81
2023-05-13T11:19:28.388Z,23.81
2023-05-13T11:20:28.397Z,23.82
2023-05-13T11:21:28.401Z,23.82
2023-05-13T11:22:28.435Z,23.83
2023-05-13T11:23:28.449Z,23.83
2023-05-13T11:24:28.468Z,23.84
2023-05-13T11:25:28.476Z,23.84
2023-05-13T11:26:28.507Z,23.84
2023-05-13T11:27:28.526Z,23.83
2023-05-13T11:28:28.543Z,23.84
2023-05-13T11:29:28.560Z,23.85
2023-05-13T11:30:28.613Z,23.87
2023-05-13T11:31:28.596Z,23.86
2023-05-13T11:32:28.615Z,23.87
2023-05-13T11:33:28.589Z,23.86
2023-05-13T11:34:28.593Z,23.85
2023-05-13T11:35:28.629Z,23.87
2023-05-13T11:36:28.629Z,23.89
2023-05-13T11:37:28.662Z,23.89
2023-05-13T11:38:28.700Z,23.89
2023-05-13T11:39:28.721Z,23.90
2023-05-13T11:40:28.716Z,23.90
2023-05-13T11:41:28.740Z,23.89
2023-05-13T11:42:28.774Z,23.89
2023-05-13T11:43:28.822Z,23.88
2023-05-13T11:44:28.862Z,23.90
2023-05-13T11:45:28.856Z,23.88
2023-05-13T11:46:28.926Z,23.90
2023-05-13T11:47:29.012Z,23.91
2023-05-13T11:48:28.922Z,23.90
2023-05-13T11:49:28.997Z,23.89
2023-05-13T11:50:28.952Z,23.90
2023-05-13T11:51:28.960Z,23.91
2023-05-13T11:52:28.962Z,23.89
2023-05-13T11:53:28.961Z,23.89
2023-05-13T11:54:28.968Z,23.91
2023-05-13T11:55:29.009Z,23.92
2023-05-13T11:56:28.976Z,23.94
2023-05-13T11:57:29.001Z,23.94
2023-05-13T11:58:29.009Z,23.93
2023-05-13T11:59:33.483Z,23.95
2023-05-13T12:00:30.043Z,23.94
2023-05-13T12:01:29.012Z,23.96
2023-05-13T12:02:29.138Z,23.96
2023-05-13T12:03:29.040Z,23.97
2023-05-13T12:04:29.043Z,23.98
2023-05-13T12:05:29.105Z,23.99
2023-05-13T12:06:29.052Z,23.99
2023-05-13T12:07:29.111Z,23.99
2023-05-13T12:08:29.071Z,23.99
2023-05-13T12:09:29.122Z,23.99
2023-05-13T12:10:29.197Z,23.99
2023-05-13T12:11:29.271Z,24.00
2023-05-13T12:12:29.321Z,24.01
2023-05-13T12:13:29.348Z,24.02
2023-05-13T12:14:29.401Z,24.01
2023-05-13T12:15:29.442Z,24.03
2023-05-13T12:16:29.639Z,24.03
2023-05-13T12:17:29.654Z,24.04
2023-05-13T12:18:29.636Z,24.05
2023-05-13T12:19:29.689Z,24.05
2023-05-13T12:20:29.757Z,24.05
2023-05-13T12:21:29.828Z,24.06
2023-05-13T12:22:29.901Z,24.06
2023-05-13T12:23:29.980Z,24.06
2023-05-13T12:24:30.047Z,24.08
2023-05-13T12:25:30.121Z,24.08
2023-05-13T12:26:30.193Z,24.09
2023-05-13T12:27:30.280Z,24.09
2023-05-13T12:28:30.350Z,24.10
2023-05-13T12:29:30.436Z,24.10
2023-05-13T12:30:30.530Z,24.11
2023-05-13T12:31:30.641Z,24.12
2023-05-13T12:32:30.689Z,24.12
2023-05-13T12:33:30.735Z,24.13
2023-05-13T12:34:30.807Z,24.13
2023-05-13T12:35:30.872Z,24.12
2023-05-13T12:36:30.961Z,24.13
2023-05-13T12:37:31.006Z,24.13
2023-05-13T12:38:31.076Z,24.14
2023-05-13T12:39:31.210Z,24.14
2023-05-13T12:40:31.214Z,24.14
2023-05-13T12:41:31.303Z,24.14
2023-05-13T12:42:31.354Z,24.15
2023-05-13T12:43:31.425Z,24.15
2023-05-13T12:44:31.499Z,24.14
2023-05-13T12:45:31.581Z,24.15
2023-05-13T12:46:31.685Z,24.15
2023-05-13T12:47:31.718Z,24.14
2023-05-13T12:48:31.751Z,24.15
2023-05-13T12:49:31.837Z,24.15
2023-05-13T12:50:31.887Z,24.16
2023-05-13T12:51:31.932Z,24.16
2023-05-13T12:52:32.015Z,24.15
2023-05-13T12:53:32.071Z,24.15
2023-05-13T12:54:32.144Z,24.14